Time;durP1;ratioP1;P1;durP2;ratioP2;P2;SDS_P1;SDS_P2;PMS_P1;PMS_P2;Temp;Humidity;BMP_temperature;BMP_pressure;BME280_temperature;BME280_humidity;BME280_pressure;Samples;Min_cycle;Max_cycle;Signal;HPM_P1;HPM_P2
2023/11/01 00:00:20;;;;;;;10.52;7.60;;;358.90;2329.60;;;;;;5029653;28;20044;-61
2023/11/01 00:02:46;;;;;;;15.82;9.27;;;358.90;2329.60;;;;;;5030704;28;20018;-61
2023/11/01 00:05:12;;;;;;;13.35;8.65;;;358.90;2329.60;;;;;;5030461;28;20029;-62
2023/11/01 00:07:37;;;;;;;16.15;8.43;;;359.00;2329.60;;;;;;5031934;28;20521;-61
2023/11/01 00:10:04;;;;;;;16.33;8.00;;;359.00;2329.60;;;;;;5030957;28;20033;-62
2023/11/01 00:12:29;;;;;;;12.63;8.25;;;359.00;2329.60;;;;;;5032460;28;20112;-61
2023/11/01 00:14:55;;;;;;;11.30;7.63;;;359.00;2329.60;;;;;;5042614;28;20116;-62
2023/11/01 00:17:21;;;;;;;12.63;8.00;;;359.00;2329.60;;;;;;5015044;28;20041;-62
2023/11/01 00:19:47;;;;;;;11.93;7.60;;;359.00;2329.60;;;;;;5019014;28;20132;-60
2023/11/01 00:22:13;;;;;;;12.65;8.07;;;359.00;2329.60;;;;;;5029627;28;20528;-62
2023/11/01 00:24:38;;;;;;;15.82;8.85;;;358.90;2329.60;;;;;;5030281;28;20053;-60
2023/11/01 00:27:04;;;;;;;12.23;7.63;;;359.00;2329.60;;;;;;5028837;28;20032;-60
2023/11/01 00:29:30;;;;;;;10.48;7.47;;;359.00;2329.60;;;;;;5025260;28;20070;-62
2023/11/01 00:31:55;;;;;;;11.80;8.02;;;359.00;2329.60;;;;;;5038424;28;20025;-61
2023/11/01 00:34:21;;;;;;;13.05;8.23;;;359.00;2329.60;;;;;;5044242;28;20025;-61
2023/11/01 00:36:47;;;;;;;10.82;8.00;;;359.00;2329.60;;;;;;5026529;28;20080;-61
2023/11/01 00:39:12;;;;;;;11.50;7.80;;;359.00;2329.60;;;;;;5038974;28;20108;-62
2023/11/01 00:41:38;;;;;;;11.73;7.53;;;359.00;2329.60;;;;;;5035334;28;20025;-60
2023/11/01 00:44:04;;;;;;;8.55;6.38;;;359.00;2329.60;;;;;;5031358;28;20463;-61
2023/11/01 00:46:30;;;;;;;10.00;6.75;;;359.00;2329.60;;;;;;5040552;28;20539;-62
2023/11/01 00:48:56;;;;;;;10.43;6.38;;;359.00;2329.60;;;;;;5047634;28;20124;-61
2023/11/01 00:51:21;;;;;;;12.80;7.13;;;359.00;2329.60;;;;;;5045300;28;20017;-61
2023/11/01 00:53:47;;;;;;;12.50;6.53;;;359.00;2329.60;;;;;;5048791;28;20475;-60
2023/11/01 00:56:13;;;;;;;14.88;7.45;;;359.00;2329.60;;;;;;5046399;28;20021;-60
2023/11/01 00:58:39;;;;;;;10.45;7.20;;;358.90;2329.60;;;;;;5029708;28;20168;-61
2023/11/01 01:01:04;;;;;;;11.98;7.82;;;359.00;2329.60;;;;;;5036612;28;20028;-61
2023/11/01 01:03:30;;;;;;;10.45;7.63;;;359.00;2329.60;;;;;;5048875;28;20021;-61
2023/11/01 01:05:56;;;;;;;11.57;9.05;;;358.90;2329.60;;;;;;5046917;28;20036;-61
2023/11/01 01:08:21;;;;;;;14.20;8.30;;;358.90;2329.60;;;;;;5049044;28;20021;-60
2023/11/01 01:10:47;;;;;;;16.73;11.90;;;358.90;2329.60;;;;;;5047510;28;20475;-61
2023/11/01 01:13:13;;;;;;;16.45;12.23;;;359.00;2329.60;;;;;;5048640;28;20033;-62
2023/11/01 01:15:38;;;;;;;16.85;12.07;;;358.90;2329.60;;;;;;5051374;28;20406;-62
2023/11/01 01:18:04;;;;;;;15.75;11.63;;;359.00;2329.60;;;;;;5052692;28;20013;-61
2023/11/01 01:20:30;;;;;;;16.85;12.40;;;358.90;2329.60;;;;;;5051519;28;20049;-61
2023/11/01 01:22:56;;;;;;;17.63;12.85;;;358.90;2329.60;;;;;;5052524;28;20040;-61
2023/11/01 01:25:21;;;;;;;19.02;14.50;;;358.90;2329.60;;;;;;5045977;28;20488;-61
2023/11/01 01:27:47;;;;;;;21.40;13.73;;;358.80;2329.60;;;;;;5043734;28;20067;-62
2023/11/01 01:30:13;;;;;;;22.02;14.40;;;358.70;2329.60;;;;;;5031259;28;20037;-60
2023/11/01 01:32:39;;;;;;;21.88;14.73;;;358.70;2329.60;;;;;;5044551;28;20021;-62
2023/11/01 01:35:05;;;;;;;19.13;14.20;;;358.70;2329.60;;;;;;5051263;28;20488;-62
2023/11/01 01:37:31;;;;;;;20.83;13.52;;;358.70;2329.60;;;;;;5051798;28;20423;-62
2023/11/01 01:39:56;;;;;;;19.88;12.32;;;358.70;2329.60;;;;;;5051690;28;20053;-61
2023/11/01 01:42:22;;;;;;;17.58;14.48;;;358.80;2329.60;;;;;;5051823;28;20025;-61
2023/11/01 01:44:48;;;;;;;14.82;11.98;;;358.80;2329.60;;;;;;5051469;28;20029;-61
2023/11/01 01:47:14;;;;;;;16.30;12.63;;;358.80;2329.60;;;;;;5051651;28;20060;-61
2023/11/01 01:49:39;;;;;;;16.52;12.43;;;358.80;2329.60;;;;;;5051278;28;20044;-62
2023/11/01 01:52:05;;;;;;;15.80;12.48;;;358.80;2329.60;;;;;;5051642;28;20046;-61
2023/11/01 01:54:31;;;;;;;16.95;12.63;;;358.80;2329.60;;;;;;5051387;28;20032;-62
2023/11/01 01:56:57;;;;;;;15.10;11.43;;;358.80;2329.60;;;;;;5051355;28;20021;-61
2023/11/01 01:59:24;;;;;;;18.48;12.05;;;358.80;2329.60;;;;;;5050745;28;20029;-61
2023/11/01 02:01:50;;;;;;;19.15;12.35;;;358.80;2329.60;;;;;;5046692;28;20033;-62
2023/11/01 02:04:16;;;;;;;15.68;11.18;;;358.80;2329.60;;;;;;5028148;28;20052;-62
2023/11/01 02:06:44;;;;;;;18.42;12.07;;;358.80;2329.60;;;;;;5051138;28;20054;-62
2023/11/01 02:09:15;;;;;;;17.35;12.10;;;358.80;2329.60;;;;;;5050795;28;20051;-62
2023/11/01 02:11:44;;;;;;;14.05;11.55;;;358.80;2329.60;;;;;;5051051;28;20029;-61
2023/11/01 02:14:11;;;;;;;14.27;12.25;;;358.80;2329.60;;;;;;5050649;28;20021;-62
2023/11/01 02:16:37;;;;;;;15.85;11.50;;;358.80;2329.60;;;;;;5050917;28;20025;-62
2023/11/01 02:19:08;;;;;;;15.55;11.98;;;358.80;2329.60;;;;;;5050954;28;20048;-62
2023/11/01 02:21:34;;;;;;;15.93;12.07;;;358.80;2329.60;;;;;;5050706;28;20025;-62
2023/11/01 02:24:00;;;;;;;15.70;12.65;;;358.80;2329.60;;;;;;5050697;28;20555;-62
2023/11/01 02:26:26;;;;;;;19.25;12.43;;;358.90;2329.60;;;;;;5037617;28;20027;-62
2023/11/01 02:28:52;;;;;;;16.10;13.43;;;358.60;2329.60;;;;;;5050906;28;20458;-61
2023/11/01 02:31:18;;;;;;;19.02;13.25;;;359.00;2329.60;;;;;;5049957;28;20077;-62
2023/11/01 02:33:43;;;;;;;17.98;12.02;;;359.00;2329.60;;;;;;5050591;28;20087;-60
2023/11/01 02:36:09;;;;;;;16.38;12.68;;;359.10;2329.60;;;;;;5037240;28;20042;-62
2023/11/01 02:38:35;;;;;;;16.35;13.00;;;359.10;2329.60;;;;;;5037035;28;20029;-61
2023/11/01 02:41:01;;;;;;;15.73;13.00;;;359.10;2329.60;;;;;;5049458;28;20044;-61
2023/11/01 02:43:27;;;;;;;18.13;14.38;;;359.10;2329.60;;;;;;5038300;28;20059;-61
2023/11/01 02:45:53;;;;;;;16.70;12.75;;;359.10;2329.60;;;;;;5050886;28;20029;-61
2023/11/01 02:48:19;;;;;;;16.42;11.80;;;359.10;2329.60;;;;;;5050813;28;20028;-62
2023/11/01 02:50:45;;;;;;;15.13;12.85;;;359.10;2329.60;;;;;;5049758;28;20037;-62
2023/11/01 02:53:10;;;;;;;15.43;12.95;;;359.00;2329.60;;;;;;5050531;28;20020;-61
2023/11/01 02:55:36;;;;;;;18.60;13.80;;;359.00;2329.60;;;;;;5049844;28;20040;-61
2023/11/01 02:58:03;;;;;;;15.80;13.57;;;358.90;2329.60;;;;;;5042666;28;20030;-62
2023/11/01 03:00:28;;;;;;;18.92;12.40;;;358.90;2329.60;;;;;;5044410;28;20041;-61
2023/11/01 03:02:56;;;;;;;16.95;12.85;;;358.90;2329.60;;;;;;5051082;28;20025;-62
2023/11/01 03:05:24;;;;;;;17.15;14.32;;;359.00;2329.60;;;;;;5049941;28;20029;-61
2023/11/01 03:07:50;;;;;;;19.52;14.88;;;359.00;2329.60;;;;;;5038939;28;20547;-64
2023/11/01 03:10:15;;;;;;;21.45;15.77;;;359.00;2329.60;;;;;;5029179;28;20044;-62
2023/11/01 03:12:41;;;;;;;16.73;13.07;;;359.00;2329.60;;;;;;5050678;28;20029;-64
2023/11/01 03:15:08;;;;;;;20.92;13.55;;;359.00;2329.60;;;;;;5050464;28;20032;-61
2023/11/01 03:17:35;;;;;;;16.63;13.02;;;359.00;2329.60;;;;;;5050324;28;20032;-61
2023/11/01 03:20:01;;;;;;;18.27;13.65;;;359.00;2329.60;;;;;;5049657;28;20049;-61
2023/11/01 03:22:27;;;;;;;17.75;13.25;;;359.10;2329.60;;;;;;5047972;28;20040;-65
2023/11/01 03:24:53;;;;;;;17.10;14.23;;;359.10;2329.60;;;;;;5049936;28;20025;-61
2023/11/01 03:27:18;;;;;;;17.42;12.93;;;359.10;2329.60;;;;;;5049836;28;20467;-61
2023/11/01 03:29:44;;;;;;;16.30;12.25;;;359.10;2329.60;;;;;;5049362;28;20230;-62
2023/11/01 03:32:10;;;;;;;18.13;12.10;;;359.10;2329.60;;;;;;5049802;28;20068;-62
2023/11/01 03:34:35;;;;;;;15.88;12.23;;;359.10;2329.60;;;;;;5049581;28;20021;-62
2023/11/01 03:37:01;;;;;;;15.63;12.85;;;359.10;2329.60;;;;;;5049487;28;20084;-61
2023/11/01 03:39:27;;;;;;;12.57;10.88;;;359.10;2329.60;;;;;;5033793;28;20534;-62
2023/11/01 03:41:52;;;;;;;13.75;9.82;;;359.10;2329.60;;;;;;5044901;28;20036;-61
2023/11/01 03:44:18;;;;;;;10.73;8.18;;;359.00;2329.60;;;;;;5049281;28;20024;-62
2023/11/01 03:46:45;;;;;;;9.75;8.73;;;358.90;2329.60;;;;;;5049563;28;20017;-61
2023/11/01 03:49:11;;;;;;;8.07;6.90;;;358.80;2329.60;;;;;;5048968;28;20540;-62
2023/11/01 03:51:37;;;;;;;6.50;5.60;;;358.90;2329.60;;;;;;5049117;28;20056;-61
2023/11/01 03:54:03;;;;;;;6.70;4.95;;;358.80;2329.60;;;;;;5049243;28;20051;-62
2023/11/01 03:56:29;;;;;;;9.07;4.38;;;358.80;2329.60;;;;;;5049120;28;20364;-63
2023/11/01 03:58:54;;;;;;;4.57;3.67;;;358.70;2329.60;;;;;;5049236;28;20025;-61
2023/11/01 04:01:21;;;;;;;4.35;3.75;;;358.80;2329.60;;;;;;5049008;28;20026;-61
2023/11/01 04:03:47;;;;;;;5.55;4.05;;;358.80;2329.60;;;;;;5048818;28;20455;-62
2023/11/01 04:06:13;;;;;;;5.28;4.20;;;358.70;2329.60;;;;;;5049093;28;20024;-61
2023/11/01 04:08:39;;;;;;;5.10;3.63;;;358.60;2329.60;;;;;;5048959;28;20675;-62
2023/11/01 04:11:05;;;;;;;4.63;3.40;;;358.60;2329.60;;;;;;5049477;28;20033;-61
2023/11/01 04:13:33;;;;;;;6.35;3.80;;;358.50;2329.60;;;;;;5048793;28;20039;-62
2023/11/01 04:15:59;;;;;;;6.50;3.80;;;358.50;2329.60;;;;;;5044193;28;20036;-61
2023/11/01 04:18:25;;;;;;;4.85;3.72;;;358.60;2329.60;;;;;;5026322;28;20026;-61
2023/11/01 04:20:51;;;;;;;4.18;3.38;;;358.50;2329.60;;;;;;5047602;28;20463;-59
2023/11/01 04:23:17;;;;;;;5.03;3.70;;;358.50;2329.60;;;;;;5052426;28;20680;-61
2023/11/01 04:25:43;;;;;;;4.38;3.75;;;358.40;2329.60;;;;;;5053409;28;20025;-61
2023/11/01 04:28:09;;;;;;;7.03;3.65;;;333.70;2329.60;;;;;;5052403;28;20026;-61
2023/11/01 04:30:40;;;;;;;6.07;3.72;;;333.50;2329.60;;;;;;5053015;28;20044;-61
2023/11/01 04:33:06;;;;;;;5.72;3.60;;;358.70;2329.60;;;;;;5039839;28;20438;-60
2023/11/01 04:35:34;;;;;;;8.25;4.07;;;333.40;2329.60;;;;;;5053107;28;20036;-61
2023/11/01 04:38:00;;;;;;;5.20;3.67;;;333.30;2329.60;;;;;;5053168;28;20073;-62
2023/11/01 04:40:26;;;;;;;5.57;4.32;;;333.20;2329.60;;;;;;5053780;28;20028;-61
2023/11/01 04:42:52;;;;;;;5.82;3.47;;;333.20;2329.60;;;;;;5052866;28;20021;-61
2023/11/01 04:45:18;;;;;;;11.43;4.20;;;333.20;2329.60;;;;;;5053115;28;20025;-61
2023/11/01 04:47:44;;;;;;;3.90;2.70;;;333.20;2329.60;;;;;;5047034;28;20017;-61
2023/11/01 04:50:11;;;;;;;3.88;2.05;;;333.20;2329.60;;;;;;5043693;28;20049;-61
2023/11/01 04:52:37;;;;;;;3.40;2.42;;;333.10;2329.60;;;;;;5052867;28;20017;-62
2023/11/01 04:55:06;;;;;;;3.95;3.05;;;333.10;2329.60;;;;;;5043295;28;20056;-61
2023/11/01 04:57:32;;;;;;;5.43;3.00;;;333.10;2329.60;;;;;;5050695;28;20434;-61
2023/11/01 04:59:58;;;;;;;5.53;3.10;;;333.20;2329.60;;;;;;5052447;28;20033;-61
2023/11/01 05:02:24;;;;;;;5.22;2.97;;;333.10;2329.60;;;;;;5052396;28;20028;-61
2023/11/01 05:04:50;;;;;;;5.47;3.15;;;333.10;2329.60;;;;;;5053133;28;20036;-62
2023/11/01 05:07:16;;;;;;;5.25;3.60;;;333.00;2329.60;;;;;;5052290;28;20541;-62
2023/11/01 05:09:41;;;;;;;4.25;3.30;;;333.00;2329.60;;;;;;5053162;28;20037;-62
2023/11/01 05:12:08;;;;;;;4.60;3.03;;;333.00;2329.60;;;;;;5053379;28;20021;-61
2023/11/01 05:14:33;;;;;;;5.65;3.10;;;333.00;2329.60;;;;;;5045330;28;20025;-62
2023/11/01 05:16:59;;;;;;;4.65;3.38;;;333.00;2329.60;;;;;;5043300;28;20021;-62
2023/11/01 05:19:25;;;;;;;6.82;3.63;;;333.00;2329.60;;;;;;5045667;28;20041;-61
2023/11/01 05:21:51;;;;;;;6.25;3.72;;;333.00;2329.60;;;;;;5026973;28;20024;-61
2023/11/01 05:24:18;;;;;;;4.95;2.95;;;333.10;2329.60;;;;;;5043035;28;20458;-63
2023/11/01 05:26:44;;;;;;;6.15;3.13;;;333.00;2329.60;;;;;;5052563;28;20377;-61
2023/11/01 05:29:10;;;;;;;5.43;4.10;;;333.00;2329.60;;;;;;5052081;28;20065;-62
2023/11/01 05:31:36;;;;;;;8.85;5.22;;;333.00;2329.60;;;;;;5052409;28;20102;-61
2023/11/01 05:34:05;;;;;;;5.63;4.35;;;332.90;2329.60;;;;;;5051897;28;20021;-62
2023/11/01 05:36:30;;;;;;;6.40;4.72;;;332.90;2329.60;;;;;;5039193;28;20029;-61
2023/11/01 05:38:56;;;;;;;33.80;26.83;;;332.90;2329.60;;;;;;5047706;28;20029;-62
2023/11/01 05:41:22;;;;;;;13.88;9.52;;;332.90;2329.60;;;;;;5052543;28;20044;-60
2023/11/01 05:43:48;;;;;;;10.40;8.48;;;332.90;2329.60;;;;;;5051456;28;20064;-61
2023/11/01 05:46:18;;;;;;;8.20;5.50;;;332.90;2329.60;;;;;;5052549;28;20053;-60
2023/11/01 05:48:45;;;;;;;5.90;4.45;;;332.90;2329.60;;;;;;5052267;28;20028;-61
2023/11/01 05:51:10;;;;;;;8.00;5.55;;;332.90;2329.60;;;;;;5042516;28;20474;-61
2023/11/01 05:53:36;;;;;;;46.00;41.10;;;332.90;2329.60;;;;;;5032683;28;20061;-61
2023/11/01 05:56:02;;;;;;;17.40;15.68;;;332.90;2329.60;;;;;;5036886;28;20043;-60
2023/11/01 05:58:28;;;;;;;9.38;6.50;;;332.90;2329.60;;;;;;5051989;28;20021;-61
2023/11/01 06:00:54;;;;;;;11.18;6.32;;;332.90;2329.60;;;;;;5051541;28;20091;-62
2023/11/01 06:03:20;;;;;;;10.43;6.00;;;332.90;2329.60;;;;;;5052509;28;20021;-61
2023/11/01 06:05:46;;;;;;;8.15;6.60;;;333.00;2329.60;;;;;;5048712;28;20028;-62
2023/11/01 06:08:13;;;;;;;7.50;5.88;;;332.90;2329.60;;;;;;5051441;28;20056;-61
2023/11/01 06:10:39;;;;;;;10.23;5.57;;;333.00;2329.60;;;;;;5051523;28;20153;-62
2023/11/01 06:13:08;;;;;;;8.52;6.25;;;332.90;2329.60;;;;;;5051526;28;20115;-61
2023/11/01 06:15:36;;;;;;;7.13;5.47;;;333.00;2329.60;;;;;;5051815;28;20056;-61
2023/11/01 06:18:05;;;;;;;8.18;6.32;;;333.50;2329.60;;;;;;5033520;28;20032;-61
2023/11/01 06:20:31;;;;;;;8.00;6.70;;;332.90;2329.60;;;;;;5041115;28;20047;-61
2023/11/01 06:22:58;;;;;;;8.63;7.03;;;332.80;2329.60;;;;;;5051294;28;20032;-61
2023/11/01 06:25:24;;;;;;;8.05;5.90;;;308.10;2304.00;;;;;;5038274;28;20029;-61
2023/11/01 06:27:50;;;;;;;8.73;5.50;;;308.10;2304.00;;;;;;5027986;28;20033;-60
2023/11/01 06:30:16;;;;;;;8.18;5.88;;;308.00;2304.00;;;;;;5039359;28;20128;-62
2023/11/01 06:32:42;;;;;;;7.07;5.78;;;308.00;2304.00;;;;;;5050160;28;20025;-62
2023/11/01 06:35:08;;;;;;;7.80;5.43;;;308.00;2304.00;;;;;;5031878;28;20116;-63
2023/11/01 06:37:34;;;;;;;6.75;5.43;;;308.10;2304.00;;;;;;5042372;28;20036;-57
2023/11/01 06:40:01;;;;;;;8.45;5.25;;;308.10;2304.00;;;;;;5050687;28;20018;-62
2023/11/01 06:42:27;;;;;;;9.10;5.60;;;308.10;2304.00;;;;;;5046930;28;20021;-59
2023/11/01 06:44:53;;;;;;;9.98;6.60;;;308.10;2304.00;;;;;;5044315;28;20022;-58
2023/11/01 06:47:18;;;;;;;8.32;6.30;;;308.10;2304.00;;;;;;5043029;28;20364;-58
2023/11/01 06:49:44;;;;;;;12.30;7.75;;;308.10;2304.00;;;;;;5043822;28;20046;-58
2023/11/01 06:52:10;;;;;;;11.10;7.05;;;308.10;2304.00;;;;;;5046166;28;20025;-58
2023/11/01 06:54:40;;;;;;;8.93;5.68;;;308.10;2304.00;;;;;;5050963;28;20032;-59
2023/11/01 06:57:06;;;;;;;9.48;6.60;;;308.10;2304.00;;;;;;5041321;28;20504;-59
2023/11/01 06:59:32;;;;;;;8.95;5.80;;;308.10;2304.00;;;;;;5050630;28;20037;-58
2023/11/01 07:01:58;;;;;;;6.60;4.88;;;332.80;2329.60;;;;;;5050480;28;20521;-61
2023/11/01 07:04:24;;;;;;;6.03;4.47;;;332.90;2329.60;;;;;;5050744;28;20040;-60
2023/11/01 07:06:50;;;;;;;8.70;5.13;;;333.00;2329.60;;;;;;5033579;28;20021;-59
2023/11/01 07:09:16;;;;;;;8.75;6.78;;;333.00;2329.60;;;;;;5044237;28;20037;-58
2023/11/01 07:11:41;;;;;;;8.57;6.38;;;333.10;2329.60;;;;;;5050849;28;20032;-57
2023/11/01 07:14:09;;;;;;;12.85;8.68;;;333.20;2329.60;;;;;;5050562;28;20063;-58
2023/11/01 07:16:39;;;;;;;22.02;16.45;;;333.30;2329.60;;;;;;5050359;28;20115;-58
2023/11/01 07:19:05;;;;;;;17.42;13.18;;;333.40;2329.60;;;;;;5050699;28;20135;-58
2023/11/01 07:21:30;;;;;;;12.52;10.02;;;333.70;2329.60;;;;;;5049703;28;20056;-59
2023/11/01 07:23:56;;;;;;;11.00;9.27;;;384.90;2329.60;;;;;;5050247;28;20048;-57
2023/11/01 07:26:22;;;;;;;9.40;7.72;;;486.40;2380.80;;;;;;5050248;28;20017;-60
2023/11/01 07:28:48;;;;;;;13.70;10.15;;;538.30;2406.40;;;;;;5049613;28;20463;-59
2023/11/01 07:31:14;;;;;;;21.08;13.93;;;563.50;2432.00;;;;;;5049678;28;20098;-58
2023/11/01 07:33:42;;;;;;;27.77;19.65;;;;;;;;;;5049868;28;20032;-59
2023/11/01 07:36:08;;;;;;;22.60;16.77;;;;;;;;;;5050072;28;20024;-59
2023/11/01 07:38:34;;;;;;;23.10;14.93;;;;;;;;;;5029798;28;20044;-57
2023/11/01 07:41:01;;;;;;;16.60;10.90;;;;;;;;;;5044146;28;20079;-58
2023/11/01 07:43:27;;;;;;;12.88;10.32;;;614.40;2176.00;;;;;;5049464;28;20051;-58
2023/11/01 07:45:55;;;;;;;18.52;11.05;;;640.00;2048.00;;;;;;5049696;28;20056;-60
2023/11/01 07:48:21;;;;;;;14.23;9.88;;;691.30;1894.40;;;;;;5044288;28;20115;-59
2023/11/01 07:50:47;;;;;;;14.20;10.50;;;716.90;1792.00;;;;;;5049117;28;20435;-61
2023/11/01 07:53:13;;;;;;;12.35;10.70;;;717.60;1715.20;;;;;;5038492;28;20101;-58
2023/11/01 07:55:38;;;;;;;14.18;10.82;;;743.00;1664.00;;;;;;5037574;28;20022;-58
2023/11/01 07:58:04;;;;;;;14.57;11.60;;;793.60;1612.80;;;;;;5038735;28;20052;-58
2023/11/01 08:00:30;;;;;;;14.57;12.63;;;794.20;1561.60;;;;;;5037352;28;20104;-59
2023/11/01 08:02:56;;;;;;;17.25;12.65;;;819.30;1510.40;;;;;;5049522;28;20054;-60
2023/11/01 08:05:22;;;;;;;11.10;10.00;;;819.30;1510.40;;;;;;5049575;28;20029;-62
2023/11/01 08:07:49;;;;;;;12.82;9.70;;;794.50;1484.80;;;;;;5039838;28;20029;-61
2023/11/01 08:10:15;;;;;;;12.02;9.43;;;794.50;1484.80;;;;;;5047245;28;20041;-63
2023/11/01 08:12:41;;;;;;;15.57;10.00;;;844.90;1459.20;;;;;;5031654;28;20021;-63
2023/11/01 08:15:07;;;;;;;9.07;8.10;;;845.60;1382.40;;;;;;5032395;28;20034;-69
2023/11/01 08:17:33;;;;;;;4.63;4.03;;;845.70;1331.20;;;;;;5026227;28;20029;-67
2023/11/01 08:19:58;;;;;;;11.90;8.93;;;845.40;1280.00;;;;;;5052615;28;20190;-60
2023/11/01 08:22:24;;;;;;;10.88;9.65;;;844.90;1356.80;;;;;;5051865;28;20024;-60
2023/11/01 08:24:51;;;;;;;9.35;8.43;;;844.90;1356.80;;;;;;5049517;28;20045;-58
2023/11/01 08:27:17;;;;;;;10.23;8.90;;;845.20;1331.20;;;;;;5049312;28;20021;-58
2023/11/01 08:29:43;;;;;;;9.95;8.95;;;845.60;1305.60;;;;;;5047213;28;20059;-62
2023/11/01 08:32:09;;;;;;;11.45;9.57;;;870.40;1305.60;;;;;;5037302;28;20025;-59
2023/11/01 08:34:36;;;;;;;8.27;7.47;;;870.60;1305.60;;;;;;5049195;28;20017;-59
2023/11/01 08:37:02;;;;;;;10.10;6.38;;;871.10;1254.40;;;;;;5049002;28;20387;-63
2023/11/01 08:39:28;;;;;;;6.25;5.05;;;870.40;1254.40;;;;;;5048675;28;20155;-61
2023/11/01 08:41:54;;;;;;;7.13;5.30;;;845.20;1280.00;;;;;;5041250;28;20487;-58
2023/11/01 08:44:19;;;;;;;6.82;6.13;;;870.60;1254.40;;;;;;5036795;28;20120;-72
2023/11/01 08:46:45;;;;;;;6.60;6.00;;;871.10;1228.80;;;;;;5021344;28;20500;-72
2023/11/01 08:49:11;;;;;;;5.95;5.25;;;871.20;1177.60;;;;;;5043471;28;20033;-72
2023/11/01 08:51:39;;;;;;;11.52;4.90;;;870.90;1203.20;;;;;;5048767;28;20040;-72
2023/11/01 08:54:05;;;;;;;6.93;4.15;;;870.50;1203.20;;;;;;5048522;28;20443;-70
2023/11/01 08:56:31;;;;;;;8.45;4.88;;;870.90;1177.60;;;;;;5049439;28;20107;-73
2023/11/01 08:58:56;;;;;;;7.40;4.43;;;845.40;1228.80;;;;;;5048816;28;20481;-74
2023/11/01 09:01:24;;;;;;;5.55;4.10;;;870.50;1203.20;;;;;;5048687;28;20116;-73
2023/11/01 09:03:50;;;;;;;9.52;4.40;;;;;;;;;;5048334;28;20017;-74
2023/11/01 09:06:16;;;;;;;4.70;3.88;;;820.00;1228.80;;;;;;5048173;28;20021;-73
2023/11/01 09:08:42;;;;;;;7.53;3.30;;;819.60;1254.40;;;;;;5049649;28;20025;-74
2023/11/01 09:11:08;;;;;;;6.38;4.18;;;768.10;1305.60;;;;;;5051034;28;20075;-73
2023/11/01 09:13:34;;;;;;;5.20;3.60;;;742.40;1356.80;;;;;;5050992;28;20045;-73
2023/11/01 09:16:00;;;;;;;5.55;2.58;;;691.40;1382.40;;;;;;5030909;28;20127;-73
2023/11/01 09:18:25;;;;;;;5.35;2.42;;;665.60;1433.60;;;;;;5039486;28;20025;-72
2023/11/01 09:20:51;;;;;;;5.00;2.63;;;615.00;1510.40;;;;;;5052196;28;20059;-73
2023/11/01 09:23:17;;;;;;;3.47;2.30;;;614.80;1536.00;;;;;;5052246;28;20447;-73
2023/11/01 09:25:43;;;;;;;3.70;2.78;;;614.40;1561.60;;;;;;5052773;28;20533;-72
2023/11/01 09:28:08;;;;;;;3.22;2.10;;;564.10;1638.40;;;;;;5038629;28;20025;-73
2023/11/01 09:30:35;;;;;;;2.90;1.77;;;563.20;1664.00;;;;;;5042658;28;20037;-72
2023/11/01 09:33:01;;;;;;;3.42;2.13;;;563.50;1664.00;;;;;;5043850;28;20108;-73
2023/11/01 09:35:29;;;;;;;3.95;2.50;;;563.40;1689.60;;;;;;5046199;28;20059;-73
2023/11/01 09:37:55;;;;;;;3.60;2.00;;;563.20;1689.60;;;;;;5036332;28;20045;-73
2023/11/01 09:40:21;;;;;;;3.40;1.90;;;538.40;1664.00;;;;;;5037289;28;20040;-74
2023/11/01 09:42:49;;;;;;;2.72;1.60;;;538.30;1664.00;;;;;;5031927;28;20029;-73
2023/11/01 09:45:19;;;;;;;2.65;1.90;;;;;;;;;;5032039;28;20440;-72
2023/11/01 09:47:46;;;;;;;3.92;2.10;;;537.70;1689.60;;;;;;5030052;28;20025;-72
2023/11/01 09:50:13;;;;;;;3.85;1.60;;;512.90;1664.00;;;;;;5039130;28;20046;-73
2023/11/01 09:52:39;;;;;;;3.33;1.70;;;512.90;1664.00;;;;;;5040389;28;20018;-73
2023/11/01 09:55:06;;;;;;;4.75;2.42;;;512.80;1638.40;;;;;;5041757;28;20036;-71
2023/11/01 09:57:34;;;;;;;4.50;2.10;;;512.90;1612.80;;;;;;5040924;28;20071;-73
2023/11/01 10:00:03;;;;;;;2.90;1.40;;;512.40;1664.00;;;;;;5044745;28;20028;-72
2023/11/01 10:02:29;;;;;;;2.47;1.30;;;512.70;1664.00;;;;;;5032087;28;20156;-71
2023/11/01 10:04:55;;;;;;;3.92;2.15;;;512.60;1638.40;;;;;;5032981;28;20060;-72
2023/11/01 10:07:20;;;;;;;2.80;1.83;;;512.60;1740.80;;;;;;5032739;28;20021;-71
2023/11/01 10:09:47;;;;;;;2.85;1.42;;;512.00;1689.60;;;;;;5038034;28;20510;-71
2023/11/01 10:12:13;;;;;;;3.33;2.03;;;512.00;1689.60;;;;;;5040703;28;20109;-72
2023/11/01 10:14:40;;;;;;;4.78;1.63;;;487.20;1689.60;;;;;;5044824;28;20087;-72
2023/11/01 10:17:05;;;;;;;2.50;1.55;;;487.20;1689.60;;;;;;5050897;28;20375;-72
2023/11/01 10:19:32;;;;;;;2.63;1.50;;;487.30;1689.60;;;;;;5049085;28;20053;-73
2023/11/01 10:21:57;;;;;;;3.58;1.95;;;512.20;1689.60;;;;;;5033095;28;20025;-72
2023/11/01 10:24:27;;;;;;;3.97;2.03;;;487.30;1715.20;;;;;;5045689;28;20032;-72
2023/11/01 10:26:55;;;;;;;2.25;1.55;;;487.20;1715.20;;;;;;5035434;28;20075;-72
2023/11/01 10:29:21;;;;;;;2.15;1.25;;;512.10;1689.60;;;;;;5045002;28;20033;-73
2023/11/01 10:31:55;;;;;;;5.15;2.40;;;512.00;1689.60;;;;;;5049459;28;20051;-74
2023/11/01 10:34:28;;;;;;;7.70;4.20;;;487.10;1715.20;;;;;;5046689;28;20017;-73
2023/11/01 10:36:54;;;;;;;4.93;2.40;;;487.00;1715.20;;;;;;5048659;28;20021;-72
2023/11/01 10:39:21;;;;;;;3.30;1.90;;;487.00;1689.60;;;;;;5048091;28;20029;-73
2023/11/01 10:41:48;;;;;;;4.03;1.65;;;487.00;1715.20;;;;;;5022092;28;20036;-74
2023/11/01 10:44:20;;;;;;;3.60;1.80;;;486.80;1740.80;;;;;;5048063;28;20017;-73
2023/11/01 10:46:47;;;;;;;3.38;1.85;;;486.90;1715.20;;;;;;5023760;28;20032;-73
2023/11/01 10:49:13;;;;;;;4.20;1.50;;;486.80;1715.20;;;;;;5038579;28;20032;-73
2023/11/01 10:51:40;;;;;;;2.90;1.70;;;487.00;1715.20;;;;;;5030336;28;20472;-73
2023/11/01 10:54:07;;;;;;;4.75;2.03;;;487.00;1715.20;;;;;;5034854;28;20043;-73
2023/11/01 10:56:33;;;;;;;2.33;1.30;;;486.70;1715.20;;;;;;5039597;28;20037;-71
2023/11/01 10:59:03;;;;;;;4.25;1.92;;;486.80;1715.20;;;;;;5044983;28;20074;-73
2023/11/01 11:01:50;;;;;;;2.83;1.60;;;486.80;1740.80;;;;;;5046644;28;20044;-72
2023/11/01 11:04:32;;;;;;;5.20;2.92;;;486.80;1689.60;;;;;;5043048;28;20109;-73
2023/11/01 11:07:19;;;;;;;2.95;1.90;;;486.70;1715.20;;;;;;5028574;28;20013;-73
2023/11/01 11:09:45;;;;;;;2.83;1.58;;;486.60;1740.80;;;;;;5037776;28;20036;-73
2023/11/01 11:12:24;;;;;;;3.28;1.60;;;486.60;1715.20;;;;;;5033424;28;20021;-73
2023/11/01 11:14:51;;;;;;;2.58;1.52;;;486.70;1740.80;;;;;;5041391;28;20115;-72
2023/11/01 11:17:18;;;;;;;5.25;1.55;;;486.70;1740.80;;;;;;5029945;28;20056;-71
2023/11/01 11:20:05;;;;;;;2.60;1.58;;;486.80;1740.80;;;;;;5029920;28;20085;-72
2023/11/01 11:23:02;;;;;;;3.38;2.10;;;486.80;1740.80;;;;;;5024440;28;20025;-72
2023/11/01 11:25:48;;;;;;;3.35;1.75;;;486.80;1740.80;;;;;;5039152;28;20053;-72
2023/11/01 11:28:32;;;;;;;5.80;1.80;;;486.70;1715.20;;;;;;5041828;28;20029;-72
2023/11/01 11:33:36;;;;;;;2.33;1.50;;;486.60;1689.60;;;;;;5049196;28;20024;-71
2023/11/01 11:36:14;;;;;;;3.05;1.70;;;486.70;1715.20;;;;;;5048133;28;20039;-71
2023/11/01 11:38:55;;;;;;;2.92;1.77;;;486.70;1715.20;;;;;;5029633;28;20022;-72
2023/11/01 11:41:26;;;;;;;3.13;1.63;;;486.80;1715.20;;;;;;5024484;28;20556;-71
2023/11/01 11:44:15;;;;;;;4.70;3.05;;;486.70;1740.80;;;;;;5022568;28;20092;-72
2023/11/01 11:46:44;;;;;;;3.65;1.95;;;486.70;1715.20;;;;;;5030088;28;20024;-71
2023/11/01 11:49:28;;;;;;;5.43;2.10;;;486.70;1740.80;;;;;;5039224;28;20025;-70
2023/11/01 11:51:56;;;;;;;5.18;2.65;;;486.70;1715.20;;;;;;5026142;28;20104;-71
2023/11/01 11:54:24;;;;;;;4.75;1.80;;;486.80;1766.40;;;;;;5027823;28;20144;-72
2023/11/01 11:57:13;;;;;;;3.78;1.75;;;486.70;1766.40;;;;;;5028470;28;20033;-72
2023/11/01 11:59:41;;;;;;;3.42;1.77;;;486.60;1740.80;;;;;;5040708;28;20442;-71
2023/11/01 12:02:16;;;;;;;2.25;1.38;;;486.60;1740.80;;;;;;5040590;28;20064;-72
2023/11/01 12:04:45;;;;;;;4.97;1.80;;;486.50;1715.20;;;;;;5027658;28;20033;-71
2023/11/01 12:07:21;;;;;;;3.45;2.08;;;486.70;1740.80;;;;;;5030517;28;20037;-71
2023/11/01 12:09:54;;;;;;;3.00;1.85;;;486.60;1740.80;;;;;;5040483;28;20262;-70
2023/11/01 12:12:21;;;;;;;7.15;2.75;;;486.70;1740.80;;;;;;5026597;28;20033;-71
2023/11/01 12:15:02;;;;;;;3.38;2.00;;;486.70;1740.80;;;;;;5045829;28;20039;-71